createdAt,value
2023-05-07T00:00:26.872Z,10.06
2023-05-07T00:02:55.230Z,10.10
2023-05-07T00:05:23.569Z,10.13
2023-05-07T00:08:07.545Z,10.15
2023-05-07T00:10:36.222Z,10.12
2023-05-07T00:13:04.621Z,10.14
2023-05-07T00:15:34.291Z,10.12
2023-05-07T00:18:02.700Z,10.17
2023-05-07T00:20:31.426Z,10.19
2023-05-07T00:22:59.648Z,10.20
2023-05-07T00:25:27.972Z,10.15
2023-05-07T00:27:56.205Z,10.09
2023-05-07T00:34:52.200Z,10.00
2023-05-07T00:37:21.061Z,10.08
2023-05-07T00:39:49.347Z,10.07
2023-05-07T00:42:17.579Z,10.11
2023-05-07T00:44:45.865Z,10.16
2023-05-07T00:47:14.627Z,10.17
2023-05-07T00:49:44.480Z,10.19
2023-05-07T00:52:15.558Z,10.14
2023-05-07T00:55:34.565Z,10.21
2023-05-07T00:58:02.993Z,10.12
2023-05-07T01:00:31.552Z,10.14
2023-05-07T01:02:59.947Z,10.15
2023-05-07T01:09:47.829Z,10.12
2023-05-07T01:12:16.166Z,10.05
2023-05-07T01:14:44.565Z,10.05
2023-05-07T01:22:26.804Z,9.99
2023-05-07T01:24:57.386Z,10.03
2023-05-07T01:27:26.187Z,10.07
2023-05-07T01:29:54.630Z,10.02
2023-05-07T01:35:09.002Z,10.11
2023-05-07T01:37:37.238Z,10.13
2023-05-07T01:40:09.517Z,10.15
2023-05-07T01:42:38.027Z,10.15
2023-05-07T01:45:33.410Z,10.16
2023-05-07T01:48:02.150Z,10.15
2023-05-07T01:50:30.453Z,10.12
2023-05-07T01:52:58.707Z,10.13
2023-05-07T01:55:28.565Z,10.00
2023-05-07T01:58:00.277Z,10.01
2023-05-07T02:00:29.031Z,10.04
2023-05-07T02:02:57.692Z,9.95
2023-05-07T02:05:38.207Z,9.84
2023-05-07T02:08:44.363Z,9.84
2023-05-07T02:11:15.272Z,9.92
2023-05-07T02:13:43.766Z,9.97
2023-05-07T02:16:12.110Z,10.00
2023-05-07T02:18:41.457Z,9.96
2023-05-07T02:21:09.996Z,9.96
2023-05-07T02:23:38.382Z,9.97
2023-05-07T02:26:07.050Z,9.92
2023-05-07T02:28:37.455Z,9.93
2023-05-07T02:32:07.390Z,9.90
2023-05-07T02:34:36.315Z,9.86
2023-05-07T02:37:04.544Z,9.72
2023-05-07T02:39:32.792Z,9.72
2023-05-07T02:46:21.766Z,9.77
2023-05-07T02:48:58.335Z,9.81
2023-05-07T02:51:28.017Z,9.82
2023-05-07T02:53:58.797Z,9.85
2023-05-07T03:00:52.331Z,9.69
2023-05-07T03:03:39.593Z,9.71
2023-05-07T03:06:08.715Z,9.67
2023-05-07T03:08:37.609Z,9.67
2023-05-07T03:15:31.655Z,9.68
2023-05-07T03:18:00.361Z,9.68
2023-05-07T03:20:30.062Z,9.67
2023-05-07T03:22:58.681Z,9.61
2023-05-07T03:29:52.535Z,9.55
2023-05-07T03:32:22.215Z,9.45
2023-05-07T03:34:50.883Z,9.50
2023-05-07T03:37:20.799Z,9.41
2023-05-07T03:39:49.655Z,9.37
2023-05-07T03:42:18.436Z,9.38
2023-05-07T03:44:51.215Z,9.40
2023-05-07T03:47:20.116Z,9.34
2023-05-07T03:54:14.780Z,9.36
2023-05-07T03:56:47.257Z,9.42
2023-05-07T03:59:15.712Z,9.39
2023-05-07T04:01:46.544Z,9.44
2023-05-07T04:04:18.592Z,9.43
2023-05-07T04:06:47.476Z,9.35
2023-05-07T04:09:17.247Z,9.21
2023-05-07T04:11:47.924Z,9.23
2023-05-07T04:14:47.590Z,9.36
2023-05-07T04:17:16.536Z,9.41
2023-05-07T04:19:46.719Z,9.36
2023-05-07T04:22:16.866Z,9.30
2023-05-07T04:24:46.591Z,9.31
2023-05-07T04:28:05.486Z,9.27
2023-05-07T04:30:34.206Z,9.20
2023-05-07T04:33:04.985Z,9.26
2023-05-07T04:35:33.819Z,9.26
2023-05-07T04:46:42.663Z,9.35
2023-05-07T04:49:11.406Z,9.40
2023-05-07T04:51:45.045Z,9.41
2023-05-07T04:54:40.449Z,9.43
2023-05-07T04:57:09.997Z,9.39
2023-05-07T04:59:38.332Z,9.42
2023-05-07T05:02:08.109Z,9.38
2023-05-07T05:05:49.542Z,9.41
2023-05-07T05:08:18.314Z,9.45
2023-05-07T05:10:46.774Z,9.51
2023-05-07T05:13:15.191Z,9.53
2023-05-07T05:15:44.666Z,9.61
2023-05-07T05:18:14.395Z,9.70
2023-05-07T05:20:42.873Z,9.81
2023-05-07T05:23:11.179Z,9.74
2023-05-07T05:25:40.390Z,9.69
2023-05-07T05:28:10.604Z,9.70
2023-05-07T05:30:39.026Z,9.67
2023-05-07T05:33:07.749Z,9.62
2023-05-07T05:35:37.836Z,9.60
2023-05-07T05:38:09.460Z,9.68
2023-05-07T05:40:38.011Z,9.74
2023-05-07T05:43:06.388Z,9.86
2023-05-07T05:45:35.380Z,9.92
2023-05-07T05:52:24.776Z,9.97
2023-05-07T05:54:54.001Z,10.00
2023-05-07T05:57:23.171Z,10.02
2023-05-07T05:59:52.117Z,10.03
2023-05-07T06:06:16.880Z,10.17
2023-05-07T06:08:47.692Z,10.24
2023-05-07T06:11:21.213Z,10.32
2023-05-07T06:14:39.729Z,10.32
2023-05-07T06:17:08.432Z,10.32
2023-05-07T06:19:37.170Z,10.27
2023-05-07T06:22:06.423Z,10.39
2023-05-07T06:28:45.271Z,10.50
2023-05-07T06:31:16.995Z,10.45
2023-05-07T06:33:51.654Z,10.50
2023-05-07T06:36:45.873Z,10.75
2023-05-07T06:39:25.037Z,10.81
2023-05-07T06:41:54.234Z,11.04
2023-05-07T06:44:29.108Z,11.34
2023-05-07T06:51:42.193Z,11.62
2023-05-07T06:54:11.024Z,11.75
2023-05-07T06:56:41.456Z,11.76
2023-05-07T06:59:10.355Z,11.82
2023-05-07T07:02:09.944Z,11.88
2023-05-07T07:04:39.850Z,11.78
2023-05-07T07:07:11.630Z,11.77
2023-05-07T07:09:42.007Z,11.84
2023-05-07T07:12:39.244Z,11.97
2023-05-07T07:15:09.038Z,11.95
2023-05-07T07:17:39.494Z,11.93
2023-05-07T07:20:11.094Z,11.99
2023-05-07T07:26:53.275Z,12.24
2023-05-07T07:29:23.741Z,12.22
2023-05-07T07:31:52.109Z,12.24
2023-05-07T07:34:23.597Z,12.33
2023-05-07T07:37:54.344Z,12.44
2023-05-07T07:40:22.785Z,12.57
2023-05-07T07:42:51.760Z,12.66
2023-05-07T07:45:20.502Z,12.71
2023-05-07T07:48:15.089Z,12.79
2023-05-07T07:50:46.078Z,12.95
2023-05-07T07:53:17.538Z,12.95
2023-05-07T07:55:46.734Z,12.91
2023-05-07T08:02:42.388Z,13.13
2023-05-07T08:05:12.822Z,13.06
2023-05-07T08:07:43.177Z,13.26
2023-05-07T08:10:13.132Z,13.33
2023-05-07T08:16:59.399Z,13.71
2023-05-07T08:19:28.093Z,13.95
2023-05-07T08:21:56.765Z,14.06
2023-05-07T08:28:40.633Z,14.18
2023-05-07T08:31:10.199Z,14.17
2023-05-07T08:33:41.275Z,14.12
2023-05-07T08:36:09.858Z,14.28
2023-05-07T08:39:07.099Z,14.45
2023-05-07T08:41:36.658Z,14.76
2023-05-07T08:44:06.749Z,15.03
2023-05-07T08:46:35.347Z,15.07
2023-05-07T08:53:01.424Z,15.25
2023-05-07T08:55:31.021Z,15.29
2023-05-07T08:58:00.013Z,15.21
2023-05-07T09:00:29.673Z,15.05
2023-05-07T09:03:58.360Z,15.25
2023-05-07T09:06:28.834Z,15.23
2023-05-07T09:08:58.624Z,15.10
2023-05-07T09:11:30.397Z,15.11
2023-05-07T09:14:20.166Z,14.85
2023-05-07T09:16:50.061Z,14.83
2023-05-07T09:19:18.559Z,14.84
2023-05-07T09:21:47.637Z,14.74
2023-05-07T09:24:17.960Z,14.74
2023-05-07T09:26:46.797Z,14.94
2023-05-07T09:29:18.051Z,14.96
2023-05-07T09:31:46.661Z,14.80
2023-05-07T09:37:24.155Z,15.09
2023-05-07T09:39:52.681Z,15.15
2023-05-07T09:42:25.894Z,14.81
2023-05-07T09:44:55.552Z,14.82
2023-05-07T09:47:27.246Z,14.90
2023-05-07T09:49:58.846Z,15.19
2023-05-07T09:52:29.718Z,15.09
2023-05-07T09:54:58.499Z,15.34
2023-05-07T09:57:28.827Z,15.39
2023-05-07T10:00:02.955Z,15.42
2023-05-07T10:02:34.839Z,15.23
2023-05-07T10:05:05.035Z,15.11
2023-05-07T10:07:35.728Z,15.25
2023-05-07T10:10:09.726Z,15.16
2023-05-07T10:12:42.854Z,15.19
2023-05-07T10:15:17.727Z,15.11
2023-05-07T10:17:50.459Z,15.47
2023-05-07T10:20:20.970Z,16.00
2023-05-07T10:22:50.958Z,15.92
2023-05-07T10:25:25.795Z,16.09
2023-05-07T10:27:55.387Z,16.42
2023-05-07T10:30:30.746Z,16.87
2023-05-07T10:33:06.938Z,17.27
2023-05-07T10:35:42.920Z,17.35
2023-05-07T10:38:11.964Z,17.44
2023-05-07T10:40:43.059Z,18.13
2023-05-07T10:43:11.796Z,18.32
2023-05-07T10:45:44.987Z,18.31
2023-05-07T10:50:54.889Z,18.02
2023-05-07T10:53:27.186Z,18.05
2023-05-07T10:56:29.122Z,18.17
2023-05-07T10:59:45.081Z,17.91
2023-05-07T11:02:25.965Z,17.86
2023-05-07T11:05:22.824Z,18.09
2023-05-07T11:07:59.957Z,18.09
2023-05-07T11:10:54.088Z,18.26
2023-05-07T11:13:45.060Z,18.27
2023-05-07T11:16:20.255Z,18.22
2023-05-07T11:18:53.457Z,18.43
2023-05-07T11:21:38.635Z,18.68
2023-05-07T11:24:31.850Z,18.73
2023-05-07T11:27:04.423Z,19.00
2023-05-07T11:29:33.626Z,18.79
2023-05-07T11:32:09.405Z,18.90
2023-05-07T11:34:44.043Z,18.58
2023-05-07T11:37:13.584Z,18.37
2023-05-07T11:40:15.008Z,18.78
2023-05-07T11:42:44.317Z,18.75
2023-05-07T11:45:15.475Z,18.58
2023-05-07T11:47:44.035Z,18.12
2023-05-07T11:50:13.925Z,18.20
2023-05-07T11:52:42.338Z,18.41
2023-05-07T11:55:12.525Z,18.62
2023-05-07T11:57:40.979Z,18.38
2023-05-07T12:00:10.530Z,18.38
2023-05-07T12:02:43.283Z,18.31
2023-05-07T12:05:11.886Z,18.26
2023-05-07T12:07:40.316Z,18.53
2023-05-07T12:10:09.075Z,18.29
2023-05-07T12:12:43.148Z,17.88
2023-05-07T12:15:12.152Z,18.06
2023-05-07T12:17:40.608Z,18.23
2023-05-07T12:20:10.484Z,18.09
2023-05-07T12:22:38.796Z,18.34
2023-05-07T12:25:08.284Z,18.65
2023-05-07T12:27:39.172Z,18.88
2023-05-07T12:30:12.219Z,18.84
2023-05-07T12:32:40.707Z,18.84
2023-05-07T12:35:09.951Z,18.39
2023-05-07T12:37:38.444Z,18.09
2023-05-07T12:40:08.557Z,17.98
2023-05-07T12:42:38.221Z,18.25
2023-05-07T12:45:15.558Z,18.20
2023-05-07T12:47:46.715Z,18.26
2023-05-07T12:50:15.347Z,18.28
2023-05-07T12:52:43.588Z,18.09
2023-05-07T12:55:14.329Z,18.10
2023-05-07T12:57:42.969Z,17.51
2023-05-07T13:00:14.505Z,17.65
2023-05-07T13:02:45.604Z,17.86
2023-05-07T13:05:14.353Z,17.97
2023-05-07T13:07:42.799Z,17.84
2023-05-07T13:10:11.948Z,17.88
2023-05-07T13:12:40.265Z,17.97
2023-05-07T13:15:10.093Z,17.94
2023-05-07T13:17:41.360Z,17.92
2023-05-07T13:20:11.223Z,17.93
2023-05-07T13:22:39.546Z,17.98
2023-05-07T13:25:09.194Z,17.81
2023-05-07T13:27:38.083Z,17.66
2023-05-07T13:30:07.783Z,17.62
2023-05-07T13:32:46.851Z,17.62
2023-05-07T13:35:15.251Z,17.66
2023-05-07T13:37:43.500Z,17.50
2023-05-07T13:40:12.889Z,17.50
2023-05-07T13:42:42.348Z,17.49
2023-05-07T13:45:11.860Z,17.51
2023-05-07T13:47:41.568Z,17.32
2023-05-07T13:50:12.991Z,17.19
2023-05-07T13:52:46.439Z,17.09
2023-05-07T13:55:15.616Z,17.15
2023-05-07T13:57:43.894Z,17.19
2023-05-07T14:00:13.834Z,17.22
2023-05-07T14:02:51.200Z,17.36
2023-05-07T14:05:19.766Z,17.48
2023-05-07T14:07:53.297Z,17.49
2023-05-07T14:10:21.876Z,17.72
2023-05-07T14:12:51.757Z,17.60
2023-05-07T14:15:20.309Z,17.71
2023-05-07T14:17:50.021Z,17.68
2023-05-07T14:20:18.282Z,17.61
2023-05-07T14:22:46.815Z,17.47
2023-05-07T14:25:15.149Z,17.39
2023-05-07T14:27:46.588Z,17.45
2023-05-07T14:30:15.219Z,17.36
2023-05-07T14:32:43.523Z,17.14
2023-05-07T14:35:14.307Z,17.39
2023-05-07T14:37:42.727Z,17.33
2023-05-07T14:40:11.896Z,17.27
2023-05-07T14:42:40.364Z,17.22
2023-05-07T14:45:10.078Z,17.21
2023-05-07T14:47:38.521Z,17.20
2023-05-07T14:50:07.726Z,17.03
2023-05-07T14:52:37.365Z,16.77
2023-05-07T14:55:06.222Z,16.66
2023-05-07T14:57:36.091Z,16.82
2023-05-07T15:00:05.600Z,16.79
2023-05-07T15:02:34.373Z,16.87
2023-05-07T15:05:02.677Z,16.83
2023-05-07T15:07:31.005Z,16.82
2023-05-07T15:10:00.742Z,16.76
2023-05-07T15:12:29.022Z,16.82
2023-05-07T15:14:57.275Z,16.96
2023-05-07T15:17:26.063Z,17.05
2023-05-07T15:19:54.690Z,17.23
2023-05-07T15:22:22.954Z,17.19
2023-05-07T15:24:51.186Z,17.26
2023-05-07T15:27:21.417Z,17.09
2023-05-07T15:29:49.926Z,17.13
2023-05-07T15:32:18.228Z,17.03
2023-05-07T15:34:46.528Z,17.08
2023-05-07T15:37:15.565Z,16.93
2023-05-07T15:39:43.814Z,17.01
2023-05-07T15:42:12.123Z,16.91
2023-05-07T15:44:42.430Z,16.98
2023-05-07T15:47:10.661Z,17.15
2023-05-07T15:49:38.919Z,17.18
2023-05-07T15:52:07.144Z,17.24
2023-05-07T15:54:35.343Z,17.26
2023-05-07T15:57:04.503Z,16.93
2023-05-07T15:59:33.342Z,16.87
2023-05-07T16:02:04.594Z,16.85
2023-05-07T16:04:32.985Z,16.85
2023-05-07T16:07:01.307Z,16.95
2023-05-07T16:09:30.144Z,17.10
2023-05-07T16:11:59.536Z,17.17
2023-05-07T16:14:27.877Z,17.08
2023-05-07T16:16:56.945Z,17.13
2023-05-07T16:19:30.293Z,17.14
2023-05-07T16:21:58.716Z,17.03
2023-05-07T16:24:27.256Z,16.79
2023-05-07T16:26:55.900Z,16.45
2023-05-07T16:29:25.851Z,16.45
2023-05-07T16:31:54.718Z,16.43
2023-05-07T16:34:23.424Z,16.45
2023-05-07T16:36:55.214Z,16.46
2023-05-07T16:39:23.718Z,16.39
2023-05-07T16:41:52.489Z,16.21
2023-05-07T16:44:20.715Z,15.85
2023-05-07T16:46:51.335Z,15.80
2023-05-07T16:49:19.497Z,15.67
2023-05-07T16:51:50.934Z,15.50
2023-05-07T16:54:22.039Z,15.47
2023-05-07T16:56:50.260Z,15.52
2023-05-07T16:59:18.494Z,15.40
2023-05-07T17:01:46.750Z,15.38
2023-05-07T17:04:16.339Z,15.29
2023-05-07T17:06:45.162Z,15.15
2023-05-07T17:09:14.935Z,15.19
2023-05-07T17:11:45.444Z,14.97
2023-05-07T17:14:13.744Z,14.83
2023-05-07T17:16:42.124Z,14.73
2023-05-07T17:19:10.857Z,14.79
2023-05-07T17:21:39.120Z,14.70
2023-05-07T17:24:08.559Z,14.63
2023-05-07T17:26:37.958Z,14.41
2023-05-07T17:29:07.685Z,14.37
2023-05-07T17:31:36.416Z,14.36
2023-05-07T17:34:04.756Z,14.20
2023-05-07T17:36:33.066Z,14.09
2023-05-07T17:39:01.632Z,14.00
2023-05-07T17:41:29.833Z,14.02
2023-05-07T17:43:58.049Z,13.95
2023-05-07T17:46:28.223Z,13.95
2023-05-07T17:48:57.728Z,13.89
2023-05-07T17:51:36.154Z,13.88
2023-05-07T17:54:11.135Z,13.85
2023-05-07T17:56:39.549Z,13.85
2023-05-07T17:59:08.003Z,13.80
2023-05-07T18:01:39.480Z,13.65
2023-05-07T18:04:08.446Z,13.53
2023-05-07T18:06:36.830Z,13.50
2023-05-07T18:09:05.320Z,13.47
2023-05-07T18:11:33.745Z,13.45
2023-05-07T18:14:02.924Z,13.32
2023-05-07T18:16:31.224Z,13.26
2023-05-07T18:19:00.908Z,13.21
2023-05-07T18:21:29.112Z,13.13
2023-05-07T18:23:57.334Z,13.06
2023-05-07T18:26:25.554Z,12.97
2023-05-07T18:28:54.231Z,12.81
2023-05-07T18:31:22.503Z,12.79
2023-05-07T18:33:52.858Z,12.72
2023-05-07T18:36:24.981Z,12.63
2023-05-07T18:38:54.265Z,12.50
2023-05-07T18:41:22.900Z,12.38
2023-05-07T18:43:51.226Z,12.33
2023-05-07T18:46:19.681Z,12.29
2023-05-07T18:48:47.971Z,12.22
2023-05-07T18:51:16.351Z,12.15
2023-05-07T18:53:46.036Z,12.06
2023-05-07T18:56:14.648Z,12.02
2023-05-07T18:58:42.871Z,12.00
2023-05-07T19:01:11.263Z,11.99
2023-05-07T19:03:39.579Z,11.93
2023-05-07T19:06:07.859Z,11.87
2023-05-07T19:08:36.105Z,11.85
2023-05-07T19:11:06.240Z,11.78
2023-05-07T19:13:34.701Z,11.73
2023-05-07T19:16:02.990Z,11.72
2023-05-07T19:18:32.448Z,11.70
2023-05-07T19:21:01.371Z,11.65
2023-05-07T19:23:29.897Z,11.62
2023-05-07T19:25:58.127Z,11.55
2023-05-07T19:28:28.161Z,11.55
2023-05-07T19:30:56.391Z,11.49
2023-05-07T19:33:24.701Z,11.46
2023-05-07T19:35:54.128Z,11.39
2023-05-07T19:38:22.711Z,11.36
2023-05-07T19:40:51.002Z,11.34
2023-05-07T19:43:19.221Z,11.34
2023-05-07T19:45:50.106Z,11.31
2023-05-07T19:48:18.421Z,11.27
2023-05-07T19:50:49.011Z,11.28
2023-05-07T19:53:17.278Z,11.23
2023-05-07T19:55:45.560Z,11.15
2023-05-07T19:58:15.919Z,11.08
2023-05-07T20:00:44.204Z,10.99
2023-05-07T20:03:18.818Z,10.96
2023-05-07T20:05:47.550Z,10.88
2023-05-07T20:08:16.082Z,10.87
2023-05-07T20:10:44.394Z,10.77
2023-05-07T20:13:12.727Z,10.69
2023-05-07T20:15:41.062Z,10.66
2023-05-07T20:18:10.345Z,10.66
2023-05-07T20:20:40.023Z,10.64
2023-05-07T20:23:08.260Z,10.60
2023-05-07T20:25:36.538Z,10.54
2023-05-07T20:28:04.772Z,10.50
2023-05-07T20:30:33.096Z,10.46
2023-05-07T20:33:04.015Z,10.38
2023-05-07T20:35:32.492Z,10.33
2023-05-07T20:38:02.480Z,10.27
2023-05-07T20:40:32.135Z,10.19
2023-05-07T20:43:00.367Z,10.14
2023-05-07T20:45:28.890Z,10.13
2023-05-07T20:47:57.273Z,10.10
2023-05-07T20:50:26.209Z,10.03
2023-05-07T20:52:54.457Z,9.99
2023-05-07T20:55:24.330Z,9.96
2023-05-07T20:57:52.648Z,9.93
2023-05-07T21:00:21.571Z,9.90
2023-05-07T21:02:50.117Z,9.83
2023-05-07T21:05:18.479Z,9.78
2023-05-07T21:07:46.728Z,9.73
2023-05-07T21:10:15.115Z,9.67
2023-05-07T21:12:45.505Z,9.64
2023-05-07T21:15:13.786Z,9.59
2023-05-07T21:17:42.233Z,9.54
2023-05-07T21:20:11.352Z,9.50
2023-05-07T21:22:39.781Z,9.44
2023-05-07T21:25:08.555Z,9.41
2023-05-07T21:27:37.098Z,9.40
2023-05-07T21:30:11.920Z,9.36
2023-05-07T21:32:40.289Z,9.34
2023-05-07T21:35:09.670Z,9.30
2023-05-07T21:37:38.064Z,9.25
2023-05-07T21:40:07.830Z,9.22
2023-05-07T21:42:36.091Z,9.18
2023-05-07T21:45:06.420Z,9.12
2023-05-07T21:47:36.108Z,9.10
2023-05-07T21:50:05.208Z,9.06
2023-05-07T21:52:33.458Z,9.01
2023-05-07T21:55:02.026Z,8.98
2023-05-07T21:57:30.459Z,8.99
2023-05-07T21:59:58.711Z,8.97
2023-05-07T22:02:27.095Z,8.92
2023-05-07T22:04:56.856Z,8.87
2023-05-07T22:07:25.558Z,8.82
2023-05-07T22:09:54.032Z,8.81
2023-05-07T22:12:22.270Z,8.77
2023-05-07T22:14:50.540Z,8.77
2023-05-07T22:17:18.749Z,8.81
2023-05-07T22:19:47.012Z,8.84
2023-05-07T22:22:18.090Z,8.82
2023-05-07T22:24:46.348Z,8.81
2023-05-07T22:27:14.604Z,8.77
2023-05-07T22:29:42.794Z,8.72
2023-05-07T22:32:12.724Z,8.72
2023-05-07T22:34:41.489Z,8.73
2023-05-07T22:37:09.748Z,8.72
2023-05-07T22:39:40.476Z,8.70
2023-05-07T22:42:08.796Z,8.70
2023-05-07T22:44:37.077Z,8.68
2023-05-07T22:47:05.410Z,8.62
2023-05-07T22:49:35.793Z,8.55
2023-05-07T22:52:04.246Z,8.49
2023-05-07T22:54:32.530Z,8.48
2023-05-07T22:57:02.141Z,8.45
2023-05-07T22:59:30.306Z,8.39
2023-05-07T23:01:58.886Z,8.36
2023-05-07T23:04:27.979Z,8.30
2023-05-07T23:06:56.457Z,8.24
2023-05-07T23:09:24.711Z,8.19
2023-05-07T23:11:52.971Z,8.16
2023-05-07T23:14:24.426Z,8.16
2023-05-07T23:16:53.419Z,8.13
2023-05-07T23:19:21.801Z,8.12
2023-05-07T23:21:50.253Z,8.08
2023-05-07T23:24:18.503Z,8.05
2023-05-07T23:26:46.778Z,8.02
2023-05-07T23:29:15.398Z,7.99
2023-05-07T23:31:45.027Z,7.99
2023-05-07T23:34:13.202Z,8.01
2023-05-07T23:36:41.411Z,8.00
2023-05-07T23:39:09.621Z,8.03
2023-05-07T23:41:37.818Z,8.07
2023-05-07T23:44:06.610Z,8.04
2023-05-07T23:46:34.824Z,8.04
2023-05-07T23:49:04.647Z,7.98
2023-05-07T23:51:32.919Z,7.93
2023-05-07T23:54:01.355Z,7.90
2023-05-07T23:56:29.829Z,7.89
2023-05-07T23:58:58.340Z,7.84
